ITY1157 LIRF-LICR
Flight info
| Callsign | ITY1157 |
|---|---|
| Flight time | N/A |
| Altitude | 29000 |
| Route | RIFFI DCT PNZ DCT ISKIA DCT SOR/N0376F190 Q58 FOSQA |
| Aircraft | A21N/M-SDE2E3FGHIRWXY/LB1 |
Departure
| Time | 2026-05-05 08:10 |
|---|---|
| Airport | Rome–Fiumicino Leonardo da Vinci International Airport (LIRF) |
Arrival
| Time | N/A |
|---|---|
| Airport | Reggio Calabria Airport (LICR) |
| Time | Latitude | Longitude | Altitude | Speed | Heading |
|---|---|---|---|---|---|
| 2026-05-05 07:48 | 41.79794 | 12.25522 | 18 ft | 0 kts | 115° |
| 2026-05-05 07:59 | 41.79801 | 12.25503 | 17 ft | 3 kts | 115° |
| 2026-05-05 07:59 | 41.79809 | 12.25477 | 17 ft | 4 kts | 88° |
| 2026-05-05 07:59 | 41.79799 | 12.25450 | 18 ft | 4 kts | 28° |
| 2026-05-05 07:59 | 41.79809 | 12.25456 | 17 ft | 4 kts | 25° |
| 2026-05-05 08:00 | 41.79833 | 12.25471 | 17 ft | 4 kts | 25° |
| 2026-05-05 08:00 | 41.79857 | 12.25486 | 19 ft | 4 kts | 25° |
| 2026-05-05 08:00 | 41.79882 | 12.25502 | 17 ft | 4 kts | 25° |
| 2026-05-05 08:00 | 41.79888 | 12.25505 | 17 ft | 0 kts | 25° |
| 2026-05-05 08:02 | 41.79888 | 12.25506 | 17 ft | 1 kts | 25° |
| 2026-05-05 08:03 | 41.79904 | 12.25516 | 17 ft | 4 kts | 25° |
| 2026-05-05 08:03 | 41.79943 | 12.25540 | 19 ft | 9 kts | 25° |
| 2026-05-05 08:03 | 41.79994 | 12.25595 | 17 ft | 10 kts | 81° |
| 2026-05-05 08:03 | 41.79976 | 12.25679 | 17 ft | 9 kts | 114° |
| 2026-05-05 08:04 | 41.79947 | 12.25760 | 18 ft | 11 kts | 115° |
| 2026-05-05 08:04 | 41.79946 | 12.25860 | 18 ft | 13 kts | 44° |
| 2026-05-05 08:04 | 41.80038 | 12.25925 | 18 ft | 17 kts | 25° |
| 2026-05-05 08:04 | 41.80113 | 12.25972 | 17 ft | 19 kts | 25° |
| 2026-05-05 08:05 | 41.80247 | 12.26054 | 17 ft | 23 kts | 25° |
| 2026-05-05 08:05 | 41.80431 | 12.26165 | 19 ft | 13 kts | 18° |
| 2026-05-05 08:05 | 41.80479 | 12.26177 | 19 ft | 11 kts | 13° |
| 2026-05-05 08:05 | 41.80540 | 12.26282 | 19 ft | 12 kts | 69° |
| 2026-05-05 08:06 | 41.80561 | 12.26359 | 21 ft | 14 kts | 70° |
| 2026-05-05 08:06 | 41.80599 | 12.26496 | 19 ft | 17 kts | 70° |
| 2026-05-05 08:06 | 41.80644 | 12.26659 | 18 ft | 20 kts | 70° |
| 2026-05-05 08:06 | 41.80696 | 12.26847 | 18 ft | 23 kts | 70° |
| 2026-05-05 08:07 | 41.80736 | 12.26989 | 18 ft | 14 kts | 61° |
| 2026-05-05 08:07 | 41.80818 | 12.27033 | 17 ft | 14 kts | 347° |
| 2026-05-05 08:07 | 41.80863 | 12.27014 | 16 ft | 0 kts | 341° |
| 2026-05-05 08:08 | 41.80865 | 12.27013 | 16 ft | 1 kts | 341° |
| 2026-05-05 08:08 | 41.80890 | 12.27001 | 16 ft | 7 kts | 340° |
| 2026-05-05 08:08 | 41.80950 | 12.26937 | 15 ft | 14 kts | 280° |
| 2026-05-05 08:08 | 41.80937 | 12.26851 | 16 ft | 0 kts | 250° |
| 2026-05-05 08:09 | 41.80902 | 12.26722 | 17 ft | 43 kts | 249° |
| 2026-05-05 08:09 | 41.80724 | 12.26100 | 24 ft | 100 kts | 249° |
| 2026-05-05 08:09 | 41.80419 | 12.24963 | 19 ft | 159 kts | 250° |
| 2026-05-05 08:10 | 41.80002 | 12.23396 | 209 ft | 182 kts | 250° |
| 2026-05-05 08:10 | 41.79571 | 12.21742 | 466 ft | 199 kts | 240° |
| 2026-05-05 08:10 | 41.78744 | 12.20361 | 1147 ft | 180 kts | 219° |
| 2026-05-05 08:10 | 41.77861 | 12.19304 | 1986 ft | 168 kts | 215° |
| 2026-05-05 08:11 | 41.76902 | 12.18237 | 2325 ft | 190 kts | 216° |
| 2026-05-05 08:11 | 41.75798 | 12.17197 | 2745 ft | 201 kts | 205° |
| 2026-05-05 08:11 | 41.74380 | 12.16722 | 3070 ft | 224 kts | 186° |
| 2026-05-05 08:11 | 41.72764 | 12.16716 | 3554 ft | 238 kts | 181° |
| 2026-05-05 08:12 | 41.71081 | 12.16928 | 4207 ft | 250 kts | 172° |
| 2026-05-05 08:12 | 41.69396 | 12.17696 | 5178 ft | 263 kts | 161° |
| 2026-05-05 08:12 | 41.67730 | 12.18830 | 6309 ft | 274 kts | 157° |
| 2026-05-05 08:12 | 41.66033 | 12.20030 | 7362 ft | 278 kts | 157° |
| 2026-05-05 08:13 | 41.64334 | 12.21283 | 8312 ft | 281 kts | 156° |
| 2026-05-05 08:13 | 41.62610 | 12.22597 | 9153 ft | 289 kts | 155° |
| 2026-05-05 08:13 | 41.60859 | 12.23952 | 10115 ft | 292 kts | 156° |
| 2026-05-05 08:13 | 41.59053 | 12.25319 | 10746 ft | 307 kts | 156° |
| 2026-05-05 08:14 | 41.57133 | 12.26769 | 11204 ft | 327 kts | 156° |
| 2026-05-05 08:14 | 41.55100 | 12.28318 | 11628 ft | 347 kts | 155° |
| 2026-05-05 08:14 | 41.52971 | 12.29930 | 12093 ft | 365 kts | 156° |
| 2026-05-05 08:14 | 41.50676 | 12.31641 | 12620 ft | 380 kts | 155° |
| 2026-05-05 08:15 | 41.48385 | 12.33396 | 13267 ft | 386 kts | 155° |
| 2026-05-05 08:15 | 41.46042 | 12.35202 | 13920 ft | 390 kts | 155° |
| 2026-05-05 08:15 | 41.43683 | 12.37012 | 14564 ft | 394 kts | 155° |
| 2026-05-05 08:15 | 41.41284 | 12.38846 | 15198 ft | 400 kts | 155° |
| 2026-05-05 08:16 | 41.38848 | 12.40693 | 16009 ft | 402 kts | 155° |
| 2026-05-05 08:16 | 41.36399 | 12.42559 | 16592 ft | 407 kts | 155° |
| 2026-05-05 08:16 | 41.33937 | 12.44423 | 17084 ft | 411 kts | 155° |
| 2026-05-05 08:16 | 41.31442 | 12.46308 | 17606 ft | 413 kts | 155° |
| 2026-05-05 08:17 | 41.28957 | 12.48182 | 18046 ft | 418 kts | 155° |
| 2026-05-05 08:17 | 41.26409 | 12.50103 | 18486 ft | 422 kts | 155° |
| 2026-05-05 08:17 | 41.23855 | 12.52069 | 18899 ft | 426 kts | 152° |
| 2026-05-05 08:17 | 41.21630 | 12.54249 | 19280 ft | 433 kts | 144° |